createdAt,value
2023-03-07T00:00:05.515Z,99851.66
2023-03-07T00:02:32.642Z,99853.53
2023-03-07T00:05:04.798Z,99843.84
2023-03-07T00:07:33.370Z,99846.52
2023-03-07T00:10:00.339Z,99856.73
2023-03-07T00:12:28.084Z,99850.73
2023-03-07T00:14:55.444Z,99841.17
2023-03-07T00:17:22.606Z,99843.39
2023-03-07T00:19:50.639Z,99844.41
2023-03-07T00:22:17.573Z,99841.96
2023-03-07T00:24:47.036Z,99834.70
2023-03-07T00:27:14.461Z,99834.16
2023-03-07T00:29:41.440Z,99831.48
2023-03-07T00:32:21.165Z,99832.88
2023-03-07T00:34:49.598Z,99830.62
2023-03-07T00:37:16.771Z,99828.84
2023-03-07T00:39:51.551Z,99827.84
2023-03-07T00:42:18.583Z,99832.59
2023-03-07T00:44:45.478Z,99828.15
2023-03-07T00:47:12.428Z,99827.45
2023-03-07T00:49:39.312Z,99829.73
2023-03-07T00:52:06.448Z,99829.54
2023-03-07T00:54:33.329Z,99829.88
2023-03-07T00:57:01.568Z,99829.08
2023-03-07T00:59:28.977Z,99832.18
2023-03-07T01:01:55.950Z,99824.14
2023-03-07T01:04:23.860Z,99820.06
2023-03-07T01:06:51.801Z,99822.38
2023-03-07T01:09:19.904Z,99820.52
2023-03-07T01:11:49.220Z,99814.93
2023-03-07T01:14:17.543Z,99812.94
2023-03-07T01:16:44.566Z,99816.92
2023-03-07T01:19:14.669Z,99814.30
2023-03-07T01:21:43.042Z,99814.63
2023-03-07T01:24:13.816Z,99813.94
2023-03-07T01:26:41.674Z,99812.39
2023-03-07T01:29:11.307Z,99812.02
2023-03-07T01:31:38.624Z,99808.33
2023-03-07T01:34:07.509Z,99809.83
2023-03-07T01:36:37.137Z,99804.88
2023-03-07T01:39:15.114Z,99805.67
2023-03-07T01:41:49.223Z,99803.15
2023-03-07T01:44:20.748Z,99801.70
2023-03-07T01:46:55.646Z,99800.15
2023-03-07T01:49:45.701Z,99799.73
2023-03-07T01:52:17.917Z,99803.05
2023-03-07T01:54:52.176Z,99805.23
2023-03-07T01:57:28.182Z,99805.05
2023-03-07T01:59:59.093Z,99804.02
2023-03-07T02:02:28.820Z,99805.58
2023-03-07T02:05:09.006Z,99803.92
2023-03-07T02:07:44.234Z,99803.46
2023-03-07T02:10:16.798Z,99806.92
2023-03-07T02:12:44.258Z,99808.69
2023-03-07T02:15:14.567Z,99809.73
2023-03-07T02:17:43.022Z,99809.04
2023-03-07T02:20:38.610Z,99801.87
2023-03-07T02:23:23.235Z,99805.55
2023-03-07T02:26:04.204Z,99804.67
2023-03-07T02:28:32.145Z,99798.77
2023-03-07T02:31:03.116Z,99795.66
2023-03-07T02:33:33.818Z,99789.68
2023-03-07T02:36:17.876Z,99784.38
2023-03-07T02:39:06.392Z,99785.70
2023-03-07T02:41:37.936Z,99777.89
2023-03-07T02:44:09.346Z,99780.59
2023-03-07T02:46:36.202Z,99778.49
2023-03-07T02:49:05.378Z,99777.12
2023-03-07T02:51:33.137Z,99777.63
2023-03-07T02:54:00.163Z,99779.15
2023-03-07T02:56:27.139Z,99774.36
2023-03-07T02:58:55.849Z,99773.50
2023-03-07T03:01:22.993Z,99774.55
2023-03-07T03:03:50.192Z,99773.20
2023-03-07T03:06:17.211Z,99775.15
2023-03-07T03:08:44.440Z,99774.35
2023-03-07T03:11:11.496Z,99772.41
2023-03-07T03:13:39.150Z,99769.80
2023-03-07T03:16:07.224Z,99773.19
2023-03-07T03:18:34.531Z,99772.13
2023-03-07T03:21:07.489Z,99768.77
2023-03-07T03:23:35.130Z,99771.02
2023-03-07T03:26:07.119Z,99771.36
2023-03-07T03:28:35.677Z,99768.40
2023-03-07T03:31:15.849Z,99770.00
2023-03-07T03:33:44.514Z,99772.34
2023-03-07T03:36:16.346Z,99771.93
2023-03-07T03:38:44.524Z,99769.09
2023-03-07T03:41:15.452Z,99765.13
2023-03-07T03:43:43.108Z,99762.85
2023-03-07T03:46:10.187Z,99758.98
2023-03-07T03:48:37.447Z,99760.81
2023-03-07T03:51:11.003Z,99759.73
2023-03-07T03:53:40.113Z,99761.50
2023-03-07T03:56:11.292Z,99764.34
2023-03-07T03:58:40.377Z,99764.38
2023-03-07T04:01:11.410Z,99763.76
2023-03-07T04:03:40.739Z,99760.52
2023-03-07T04:06:10.468Z,99750.43
2023-03-07T04:08:41.293Z,99755.38
2023-03-07T04:11:08.392Z,99750.87
2023-03-07T04:13:36.793Z,99753.29
2023-03-07T04:16:04.677Z,99753.94
2023-03-07T04:18:34.506Z,99758.88
2023-03-07T04:21:02.533Z,99759.95
2023-03-07T04:23:33.839Z,99755.92
2023-03-07T04:26:04.437Z,99752.83
2023-03-07T04:28:45.783Z,99757.98
2023-03-07T04:31:43.044Z,99755.84
2023-03-07T04:34:11.140Z,99751.91
2023-03-07T04:36:38.166Z,99749.12
2023-03-07T04:39:05.810Z,99754.27
2023-03-07T04:41:37.410Z,99756.30
2023-03-07T04:44:16.747Z,99757.61
2023-03-07T04:46:43.782Z,99755.48
2023-03-07T04:49:10.777Z,99756.05
2023-03-07T04:51:38.406Z,99762.41
2023-03-07T04:54:08.477Z,99757.83
2023-03-07T04:56:35.740Z,99751.94
2023-03-07T04:59:03.099Z,99747.91
2023-03-07T05:01:31.094Z,99756.34
2023-03-07T05:03:58.851Z,99758.98
2023-03-07T05:06:26.541Z,99759.57
2023-03-07T05:08:55.036Z,99759.41
2023-03-07T05:11:22.312Z,99755.41
2023-03-07T05:13:50.904Z,99757.06
2023-03-07T05:16:20.007Z,99755.09
2023-03-07T05:18:47.351Z,99758.80
2023-03-07T05:21:14.392Z,99761.40
2023-03-07T05:23:42.257Z,99759.48
2023-03-07T05:26:10.714Z,99752.75
2023-03-07T05:28:38.054Z,99750.70
2023-03-07T05:31:06.671Z,99754.81
2023-03-07T05:33:34.535Z,99758.52
2023-03-07T05:36:03.233Z,99758.64
2023-03-07T05:38:34.883Z,99760.27
2023-03-07T05:41:02.315Z,99765.89
2023-03-07T05:43:30.415Z,99763.00
2023-03-07T05:45:58.057Z,99762.14
2023-03-07T05:48:25.371Z,99760.11
2023-03-07T05:50:52.525Z,99753.61
2023-03-07T05:53:19.845Z,99752.38
2023-03-07T05:55:52.717Z,99749.23
2023-03-07T05:58:21.811Z,99744.94
2023-03-07T06:00:49.491Z,99743.57
2023-03-07T06:03:17.703Z,99739.96
2023-03-07T06:05:47.989Z,99742.20
2023-03-07T06:08:15.648Z,99740.77
2023-03-07T06:10:44.122Z,99737.56
2023-03-07T06:13:18.090Z,99739.85
2023-03-07T06:15:45.235Z,99738.55
2023-03-07T06:18:14.582Z,99738.46
2023-03-07T06:20:41.867Z,99737.95
2023-03-07T06:23:09.234Z,99740.23
2023-03-07T06:25:37.745Z,99743.23
2023-03-07T06:28:05.164Z,99738.51
2023-03-07T06:30:34.261Z,99737.23
2023-03-07T06:33:02.063Z,99737.67
2023-03-07T06:35:30.005Z,99737.61
2023-03-07T06:37:57.194Z,99737.92
2023-03-07T06:40:24.322Z,99733.88
2023-03-07T06:42:53.219Z,99736.34
2023-03-07T06:45:20.265Z,99734.23
2023-03-07T06:47:51.408Z,99733.23
2023-03-07T06:50:26.434Z,99728.86
2023-03-07T06:52:57.321Z,99723.21
2023-03-07T06:55:24.411Z,99720.52
2023-03-07T06:57:51.584Z,99720.73
2023-03-07T07:00:24.080Z,99728.00
2023-03-07T07:02:51.775Z,99725.83
2023-03-07T07:05:18.781Z,99725.84
2023-03-07T07:07:46.249Z,99726.95
2023-03-07T07:10:13.442Z,99727.06
2023-03-07T07:12:40.862Z,99725.45
2023-03-07T07:15:10.572Z,99728.30
2023-03-07T07:17:39.129Z,99727.19
2023-03-07T07:20:10.978Z,99725.05
2023-03-07T07:22:41.002Z,99724.95
2023-03-07T07:25:10.118Z,99721.77
2023-03-07T07:27:37.857Z,99719.02
2023-03-07T07:30:06.639Z,99714.77
2023-03-07T07:32:35.663Z,99709.27
2023-03-07T07:35:03.557Z,99712.53
2023-03-07T07:37:31.918Z,99706.20
2023-03-07T07:39:59.254Z,99700.81
2023-03-07T07:42:59.236Z,99697.61
2023-03-07T07:45:34.438Z,99694.25
2023-03-07T07:48:02.273Z,99687.00
2023-03-07T07:50:30.041Z,99690.01
2023-03-07T07:53:33.436Z,99687.58
2023-03-07T07:56:03.414Z,99686.85
2023-03-07T07:58:35.494Z,99676.08
2023-03-07T08:01:13.489Z,99674.59
2023-03-07T08:03:40.849Z,99675.20
2023-03-07T08:06:08.004Z,99673.01
2023-03-07T08:08:35.345Z,99674.85
2023-03-07T08:11:05.686Z,99675.79
2023-03-07T08:13:33.833Z,99674.30
2023-03-07T08:16:17.892Z,99674.60
2023-03-07T08:18:56.246Z,99669.95
2023-03-07T08:21:24.557Z,99666.64
2023-03-07T08:23:55.550Z,99664.19
2023-03-07T08:26:23.058Z,99660.13
2023-03-07T08:28:50.348Z,99659.30
2023-03-07T08:31:23.097Z,99662.45
2023-03-07T08:33:51.884Z,99661.95
2023-03-07T08:36:19.644Z,99654.52
2023-03-07T08:38:52.059Z,99653.48
2023-03-07T08:41:21.011Z,99649.72
2023-03-07T08:43:47.994Z,99649.13
2023-03-07T08:46:15.152Z,99647.79
2023-03-07T08:48:42.452Z,99642.28
2023-03-07T08:51:15.192Z,99646.84
2023-03-07T08:53:45.811Z,99647.52
2023-03-07T08:56:19.212Z,99648.39
2023-03-07T08:58:57.146Z,99644.42
2023-03-07T09:01:24.256Z,99644.45
2023-03-07T09:03:51.482Z,99642.72
2023-03-07T09:06:22.518Z,99641.44
2023-03-07T09:08:49.951Z,99634.63
2023-03-07T09:11:18.846Z,99633.71
2023-03-07T09:13:52.421Z,99629.07
2023-03-07T09:16:21.516Z,99630.98
2023-03-07T09:18:48.814Z,99619.73
2023-03-07T09:21:16.751Z,99619.33
2023-03-07T09:23:44.112Z,99617.35
2023-03-07T09:26:17.475Z,99614.30
2023-03-07T09:28:44.580Z,99608.83
2023-03-07T09:31:13.425Z,99610.75
2023-03-07T09:33:41.920Z,99610.68
2023-03-07T09:36:14.755Z,99614.15
2023-03-07T09:38:42.483Z,99604.70
2023-03-07T09:41:12.605Z,99606.42
2023-03-07T09:43:51.124Z,99601.38
2023-03-07T09:46:53.234Z,99596.21
2023-03-07T09:49:31.744Z,99588.77
2023-03-07T09:52:01.201Z,99580.80
2023-03-07T09:54:45.503Z,99586.66
2023-03-07T09:57:23.961Z,99583.42
2023-03-07T10:00:19.775Z,99582.09
2023-03-07T10:02:53.654Z,99577.61
2023-03-07T10:05:38.453Z,99573.14
2023-03-07T10:08:15.137Z,99576.80
2023-03-07T10:10:48.357Z,99575.05
2023-03-07T10:13:40.722Z,99572.24
2023-03-07T10:16:41.075Z,99570.20
2023-03-07T10:19:26.607Z,99573.25
2023-03-07T10:22:27.171Z,99569.00
2023-03-07T10:25:15.977Z,99565.38
2023-03-07T10:27:46.538Z,99562.16
2023-03-07T10:30:17.436Z,99557.37
2023-03-07T10:32:58.105Z,99558.59
2023-03-07T10:36:02.113Z,99558.42
2023-03-07T10:38:49.303Z,99550.29
2023-03-07T10:41:20.909Z,99552.38
2023-03-07T10:43:50.623Z,99552.25
2023-03-07T10:46:27.341Z,99557.31
2023-03-07T10:49:09.592Z,99556.36
2023-03-07T10:51:57.500Z,99555.17
2023-03-07T10:54:30.259Z,99553.70
2023-03-07T10:57:18.306Z,99556.30
2023-03-07T10:59:48.041Z,99551.65
2023-03-07T11:02:46.618Z,99551.30
2023-03-07T11:05:31.883Z,99551.71
2023-03-07T11:08:00.952Z,99554.13
2023-03-07T11:10:40.470Z,99552.64
2023-03-07T11:13:20.411Z,99550.92
2023-03-07T11:15:49.748Z,99548.34
2023-03-07T11:18:31.365Z,99546.77
2023-03-07T11:20:58.938Z,99547.67
2023-03-07T11:23:30.944Z,99542.41
2023-03-07T11:26:22.330Z,99542.69
2023-03-07T11:29:04.826Z,99538.41
2023-03-07T11:31:55.170Z,99537.14
2023-03-07T11:34:44.756Z,99537.23
2023-03-07T11:37:23.809Z,99533.66
2023-03-07T11:40:23.137Z,99528.52
2023-03-07T11:43:14.017Z,99532.39
2023-03-07T11:46:09.563Z,99530.75
2023-03-07T11:48:50.329Z,99530.91
2023-03-07T11:51:41.394Z,99532.59
2023-03-07T11:54:29.212Z,99532.73
2023-03-07T11:57:07.525Z,99527.59
2023-03-07T11:59:46.999Z,99524.80
2023-03-07T12:02:42.584Z,99522.86
2023-03-07T12:05:20.589Z,99524.71
2023-03-07T12:07:55.037Z,99522.04
2023-03-07T12:10:29.795Z,99520.67
2023-03-07T12:13:29.413Z,99521.14
2023-03-07T12:16:12.911Z,99516.07
2023-03-07T12:19:16.034Z,99515.12
2023-03-07T12:21:48.757Z,99512.14
2023-03-07T12:24:26.725Z,99510.00
2023-03-07T12:27:14.155Z,99513.20
2023-03-07T12:29:51.338Z,99508.68
2023-03-07T12:32:23.741Z,99511.98
2023-03-07T12:34:55.396Z,99511.98
2023-03-07T12:37:53.050Z,99511.22
2023-03-07T12:40:25.657Z,99508.25
2023-03-07T12:43:05.046Z,99506.88
2023-03-07T12:45:43.125Z,99507.04
2023-03-07T12:48:42.606Z,99502.36
2023-03-07T12:51:38.431Z,99499.40
2023-03-07T12:54:13.571Z,99494.12
2023-03-07T12:56:50.706Z,99493.77
2023-03-07T12:59:20.397Z,99491.63
2023-03-07T13:02:10.218Z,99491.40
2023-03-07T13:04:42.910Z,99493.52
2023-03-07T13:07:27.397Z,99494.52
2023-03-07T13:09:58.852Z,99490.28
2023-03-07T13:12:33.860Z,99491.05
2023-03-07T13:15:00.844Z,99489.61
2023-03-07T13:17:31.713Z,99490.22
2023-03-07T13:20:00.918Z,99488.54
2023-03-07T13:22:34.647Z,99485.68
2023-03-07T13:25:23.917Z,99485.71
2023-03-07T13:27:57.963Z,99484.64
2023-03-07T13:30:26.268Z,99486.40
2023-03-07T13:32:56.142Z,99482.60
2023-03-07T13:35:38.631Z,99477.48
2023-03-07T13:38:14.895Z,99474.40
2023-03-07T13:40:44.634Z,99476.27
2023-03-07T13:43:25.593Z,99475.98
2023-03-07T13:45:57.649Z,99473.55
2023-03-07T13:48:24.783Z,99472.20
2023-03-07T13:50:55.498Z,99473.11
2023-03-07T13:53:35.682Z,99471.39
2023-03-07T13:56:14.712Z,99467.75
2023-03-07T13:59:06.078Z,99471.71
2023-03-07T14:01:41.438Z,99472.39
2023-03-07T14:04:40.746Z,99469.88
2023-03-07T14:07:20.897Z,99473.43
2023-03-07T14:09:56.655Z,99469.27
2023-03-07T14:12:57.526Z,99471.54
2023-03-07T14:15:56.461Z,99469.02
2023-03-07T14:18:38.442Z,99471.22
2023-03-07T14:21:09.179Z,99468.77
2023-03-07T14:23:52.449Z,99468.66
2023-03-07T14:26:32.835Z,99468.57
2023-03-07T14:29:03.229Z,99473.84
2023-03-07T14:31:39.136Z,99471.27
2023-03-07T14:34:17.166Z,99471.52
2023-03-07T14:36:48.507Z,99471.85
2023-03-07T14:39:15.877Z,99472.98
2023-03-07T14:41:51.837Z,99472.05
2023-03-07T14:44:49.126Z,99472.24
2023-03-07T14:47:42.593Z,99476.16
2023-03-07T14:50:15.189Z,99475.61
2023-03-07T14:52:43.006Z,99474.05
2023-03-07T14:55:22.415Z,99479.27
2023-03-07T14:57:54.228Z,99478.27
2023-03-07T15:00:24.126Z,99478.03
2023-03-07T15:02:59.570Z,99473.55
2023-03-07T15:05:34.598Z,99475.27
2023-03-07T15:08:02.410Z,99477.80
2023-03-07T15:10:42.793Z,99483.45
2023-03-07T15:13:24.470Z,99476.88
2023-03-07T15:16:00.542Z,99478.57
2023-03-07T15:18:38.253Z,99481.08
2023-03-07T15:21:19.137Z,99481.72
2023-03-07T15:23:55.944Z,99479.02
2023-03-07T15:26:27.828Z,99479.02
2023-03-07T15:29:08.393Z,99477.23
2023-03-07T15:31:53.580Z,99478.51
2023-03-07T15:34:33.224Z,99479.46
2023-03-07T15:37:27.055Z,99476.62
2023-03-07T15:39:55.767Z,99474.11
2023-03-07T15:42:22.953Z,99476.84
2023-03-07T15:44:59.286Z,99482.11
2023-03-07T15:47:29.296Z,99482.19
2023-03-07T15:50:00.724Z,99484.02
2023-03-07T15:52:32.236Z,99489.79
2023-03-07T15:55:01.541Z,99494.86
2023-03-07T15:57:37.416Z,99496.60
2023-03-07T16:00:18.479Z,99499.14
2023-03-07T16:02:50.048Z,99502.87
2023-03-07T16:05:22.966Z,99507.05
2023-03-07T16:07:53.937Z,99508.56
2023-03-07T16:10:30.129Z,99512.86
2023-03-07T16:12:59.916Z,99506.80
2023-03-07T16:15:29.428Z,99507.20
2023-03-07T16:17:58.564Z,99507.38
2023-03-07T16:20:28.171Z,99502.11
2023-03-07T16:22:56.107Z,99507.54
2023-03-07T16:25:27.497Z,99514.60
2023-03-07T16:27:57.541Z,99513.16
2023-03-07T16:30:27.473Z,99515.52
2023-03-07T16:32:55.116Z,99509.06
2023-03-07T16:35:28.552Z,99516.77
2023-03-07T16:37:55.715Z,99514.98
2023-03-07T16:40:25.438Z,99517.89
2023-03-07T16:43:31.837Z,99514.66
2023-03-07T16:46:02.724Z,99511.88
2023-03-07T16:48:31.895Z,99511.64
2023-03-07T16:50:59.032Z,99512.86
2023-03-07T16:53:26.160Z,99512.39
2023-03-07T16:55:55.503Z,99506.67
2023-03-07T16:58:30.400Z,99502.14
2023-03-07T17:00:58.639Z,99500.68
2023-03-07T17:03:26.949Z,99497.68
2023-03-07T17:05:53.944Z,99490.27
2023-03-07T17:08:21.982Z,99484.64
2023-03-07T17:10:49.093Z,99492.13
2023-03-07T17:13:18.125Z,99494.61
2023-03-07T17:15:46.515Z,99496.13
2023-03-07T17:18:15.688Z,99496.25
2023-03-07T17:20:43.150Z,99492.63
2023-03-07T17:23:10.878Z,99489.59
2023-03-07T17:25:37.910Z,99493.86
2023-03-07T17:28:12.629Z,99484.90
2023-03-07T17:30:44.357Z,99481.58
2023-03-07T17:33:12.195Z,99483.70
2023-03-07T17:35:39.502Z,99473.52
2023-03-07T17:38:07.054Z,99471.98
2023-03-07T17:40:34.109Z,99467.36
2023-03-07T17:43:05.329Z,99466.16
2023-03-07T17:45:32.885Z,99468.89
2023-03-07T17:47:59.988Z,99470.65
2023-03-07T17:50:31.844Z,99460.17
2023-03-07T17:52:59.600Z,99462.30
2023-03-07T17:55:27.089Z,99461.41
2023-03-07T17:57:55.032Z,99458.28
2023-03-07T18:00:23.222Z,99456.21
2023-03-07T18:02:50.746Z,99447.05
2023-03-07T18:05:21.080Z,99439.50
2023-03-07T18:07:50.894Z,99437.77
2023-03-07T18:10:22.523Z,99434.53
2023-03-07T18:12:53.062Z,99444.05
2023-03-07T18:15:21.901Z,99440.09
2023-03-07T18:17:50.045Z,99440.96
2023-03-07T18:20:22.201Z,99446.98
2023-03-07T18:22:49.156Z,99449.68
2023-03-07T18:25:17.322Z,99456.05
2023-03-07T18:27:45.645Z,99462.36
2023-03-07T18:30:13.849Z,99448.85
2023-03-07T18:32:41.117Z,99429.47
2023-03-07T18:35:14.922Z,99410.94
2023-03-07T18:38:14.332Z,99398.52
2023-03-07T18:52:08.122Z,99434.54
2023-03-07T18:54:37.063Z,99427.19
2023-03-07T18:57:05.623Z,99407.02
2023-03-07T18:59:34.456Z,99406.84
2023-03-07T19:02:03.391Z,99396.23
2023-03-07T19:04:33.607Z,99395.28
2023-03-07T19:07:06.171Z,99391.64
2023-03-07T19:09:34.538Z,99385.09
2023-03-07T19:12:12.104Z,99373.77
2023-03-07T19:14:45.421Z,99369.30
2023-03-07T19:17:18.825Z,99371.35
2023-03-07T19:20:02.193Z,99359.34
2023-03-07T19:22:39.016Z,99357.70
2023-03-07T19:25:27.365Z,99352.47
2023-03-07T20:26:54.888Z,99446.63
2023-03-07T20:29:23.426Z,99456.85
2023-03-07T20:31:53.514Z,99458.87
2023-03-07T20:34:25.143Z,99460.52
2023-03-07T20:36:55.138Z,99458.78
2023-03-07T20:39:23.775Z,99441.41
2023-03-07T20:41:54.448Z,99447.00
2023-03-07T20:44:22.968Z,99449.06
2023-03-07T20:46:51.608Z,99448.60
2023-03-07T20:49:20.099Z,99448.70
2023-03-07T20:51:49.166Z,99443.48
2023-03-07T20:54:19.066Z,99446.77
2023-03-07T20:56:48.049Z,99450.13
2023-03-07T20:59:19.542Z,99453.55
2023-03-07T21:01:49.110Z,99452.16
2023-03-07T21:04:20.755Z,99445.64
2023-03-07T21:06:50.313Z,99441.48
2023-03-07T21:09:26.447Z,99439.98
2023-03-07T21:12:18.182Z,99441.08
2023-03-07T21:14:51.119Z,99440.42
2023-03-07T21:17:19.967Z,99444.38
2023-03-07T21:19:48.584Z,99442.19
2023-03-07T21:22:17.112Z,99436.54
2023-03-07T21:24:49.659Z,99436.96
2023-03-07T21:27:18.743Z,99435.38
2023-03-07T21:29:47.822Z,99436.64
2023-03-07T21:32:18.553Z,99440.36
2023-03-07T21:34:47.191Z,99444.89
2023-03-07T21:37:15.852Z,99447.55
2023-03-07T21:39:46.147Z,99450.78
2023-03-07T21:42:14.697Z,99453.05
2023-03-07T21:44:44.854Z,99455.27
2023-03-07T21:47:13.641Z,99459.52
2023-03-07T21:49:43.750Z,99457.73
2023-03-07T21:52:36.269Z,99460.77
2023-03-07T21:55:07.217Z,99463.19
2023-03-07T21:57:38.398Z,99464.20
2023-03-07T22:00:08.730Z,99465.63
2023-03-07T22:02:39.780Z,99462.10
2023-03-07T22:05:13.826Z,99462.63
2023-03-07T22:08:09.692Z,99464.20
2023-03-07T22:10:39.668Z,99464.87
2023-03-07T22:13:10.789Z,99469.26
2023-03-07T22:15:40.642Z,99468.39
2023-03-07T22:18:13.307Z,99467.86
2023-03-07T22:20:44.309Z,99471.29
2023-03-07T22:23:15.694Z,99472.19
2023-03-07T22:25:51.818Z,99469.73
2023-03-07T22:28:20.608Z,99468.57
2023-03-07T22:30:49.965Z,99470.11
2023-03-07T22:33:28.385Z,99473.09
2023-03-07T22:36:04.374Z,99474.08
2023-03-07T22:38:35.149Z,99473.42
2023-03-07T22:41:07.881Z,99478.97
2023-03-07T22:45:59.970Z,99479.11
2023-03-07T22:48:07.082Z,99484.88
2023-03-07T22:50:35.526Z,99484.94
2023-03-07T22:53:04.947Z,99486.79
2023-03-07T22:55:42.535Z,99489.39
2023-03-07T22:58:12.485Z,99494.13
2023-03-07T23:00:44.215Z,99494.16
2023-03-07T23:03:13.707Z,99494.91
2023-03-07T23:05:42.647Z,99495.80
2023-03-07T23:11:33.094Z,99500.16
2023-03-07T23:14:02.450Z,99505.64
2023-03-07T23:16:33.175Z,99500.05
2023-03-07T23:19:04.425Z,99502.85
2023-03-07T23:21:34.556Z,99501.91
2023-03-07T23:24:05.675Z,99505.47
2023-03-07T23:26:37.315Z,99504.27
2023-03-07T23:29:11.223Z,99500.44
2023-03-07T23:31:45.194Z,99503.08
2023-03-07T23:34:36.036Z,99506.60
2023-03-07T23:37:05.561Z,99509.90
2023-03-07T23:39:34.376Z,99509.23
2023-03-07T23:43:11.764Z,99510.64
2023-03-07T23:45:41.252Z,99510.40
2023-03-07T23:48:16.870Z,99510.04
2023-03-07T23:50:48.421Z,99506.48
2023-03-07T23:53:16.879Z,99509.27
2023-03-07T23:55:45.349Z,99511.05
2023-03-07T23:58:13.878Z,99506.27
